sensor_id;sensor_type;location;lat;lon;timestamp;temperature;humidity
81266;DHT22;70748;52.510;13.410;2023-06-19T00:02:16;18.80;67.40
81266;DHT22;70748;52.510;13.410;2023-06-19T00:04:42;18.80;67.60
81266;DHT22;70748;52.510;13.410;2023-06-19T00:07:08;18.80;67.80
81266;DHT22;70748;52.510;13.410;2023-06-19T00:09:34;18.80;68.00
81266;DHT22;70748;52.510;13.410;2023-06-19T00:11:59;18.80;67.70
81266;DHT22;70748;52.510;13.410;2023-06-19T00:14:26;18.90;68.60
81266;DHT22;70748;52.510;13.410;2023-06-19T00:16:52;18.90;68.10
81266;DHT22;70748;52.510;13.410;2023-06-19T00:19:18;18.80;68.10
81266;DHT22;70748;52.510;13.410;2023-06-19T00:21:44;18.90;68.00
81266;DHT22;70748;52.510;13.410;2023-06-19T00:24:10;18.90;67.50
81266;DHT22;70748;52.510;13.410;2023-06-19T00:26:36;19.00;66.90
81266;DHT22;70748;52.510;13.410;2023-06-19T00:29:02;19.00;67.50
81266;DHT22;70748;52.510;13.410;2023-06-19T00:31:27;19.00;68.00
81266;DHT22;70748;52.510;13.410;2023-06-19T00:33:54;19.00;68.00
81266;DHT22;70748;52.510;13.410;2023-06-19T00:36:19;19.00;67.90
81266;DHT22;70748;52.510;13.410;2023-06-19T00:38:47;19.10;68.80
81266;DHT22;70748;52.510;13.410;2023-06-19T00:41:15;19.20;66.90
81266;DHT22;70748;52.510;13.410;2023-06-19T00:43:42;19.30;66.40
81266;DHT22;70748;52.510;13.410;2023-06-19T00:46:08;19.40;66.30
81266;DHT22;70748;52.510;13.410;2023-06-19T00:48:34;19.50;65.90
81266;DHT22;70748;52.510;13.410;2023-06-19T00:51:00;19.50;65.30
81266;DHT22;70748;52.510;13.410;2023-06-19T00:53:26;19.60;65.70
81266;DHT22;70748;52.510;13.410;2023-06-19T00:55:53;19.60;65.60
81266;DHT22;70748;52.510;13.410;2023-06-19T00:58:23;19.70;64.70
81266;DHT22;70748;52.510;13.410;2023-06-19T01:00:50;19.70;64.80
81266;DHT22;70748;52.510;13.410;2023-06-19T01:03:16;19.70;64.80
81266;DHT22;70748;52.510;13.410;2023-06-19T01:05:42;19.70;65.00
81266;DHT22;70748;52.510;13.410;2023-06-19T01:10:56;19.70;65.10
81266;DHT22;70748;52.510;13.410;2023-06-19T01:13:40;19.70;65.20
81266;DHT22;70748;52.510;13.410;2023-06-19T01:16:07;19.70;64.80
81266;DHT22;70748;52.510;13.410;2023-06-19T01:18:34;19.70;64.80
81266;DHT22;70748;52.510;13.410;2023-06-19T01:21:13;19.60;65.10
81266;DHT22;70748;52.510;13.410;2023-06-19T01:23:40;19.60;65.20
81266;DHT22;70748;52.510;13.410;2023-06-19T01:26:06;19.40;66.00
81266;DHT22;70748;52.510;13.410;2023-06-19T01:28:34;19.30;66.50
81266;DHT22;70748;52.510;13.410;2023-06-19T01:31:00;19.30;66.70
81266;DHT22;70748;52.510;13.410;2023-06-19T01:33:28;19.30;67.10
81266;DHT22;70748;52.510;13.410;2023-06-19T01:35:57;19.20;67.20
81266;DHT22;70748;52.510;13.410;2023-06-19T01:38:24;19.10;67.30
81266;DHT22;70748;52.510;13.410;2023-06-19T01:40:53;19.10;67.50
81266;DHT22;70748;52.510;13.410;2023-06-19T01:43:20;19.20;66.80
81266;DHT22;70748;52.510;13.410;2023-06-19T01:45:47;19.10;67.40
81266;DHT22;70748;52.510;13.410;2023-06-19T01:48:14;19.10;67.70
81266;DHT22;70748;52.510;13.410;2023-06-19T01:50:47;19.10;68.10
81266;DHT22;70748;52.510;13.410;2023-06-19T01:53:13;19.10;67.90
81266;DHT22;70748;52.510;13.410;2023-06-19T01:55:39;19.00;67.90
81266;DHT22;70748;52.510;13.410;2023-06-19T01:58:04;19.10;67.80
81266;DHT22;70748;52.510;13.410;2023-06-19T02:00:30;19.10;68.10
81266;DHT22;70748;52.510;13.410;2023-06-19T02:03:01;19.10;68.00
81266;DHT22;70748;52.510;13.410;2023-06-19T02:05:26;19.10;68.30
81266;DHT22;70748;52.510;13.410;2023-06-19T02:07:52;19.10;68.20
81266;DHT22;70748;52.510;13.410;2023-06-19T02:10:18;19.20;68.00
81266;DHT22;70748;52.510;13.410;2023-06-19T02:12:43;19.20;67.70
81266;DHT22;70748;52.510;13.410;2023-06-19T02:15:09;19.30;67.30
81266;DHT22;70748;52.510;13.410;2023-06-19T02:17:35;19.20;67.50
81266;DHT22;70748;52.510;13.410;2023-06-19T02:20:01;19.20;67.50
81266;DHT22;70748;52.510;13.410;2023-06-19T02:22:27;19.30;67.40
81266;DHT22;70748;52.510;13.410;2023-06-19T02:24:53;19.30;67.70
81266;DHT22;70748;52.510;13.410;2023-06-19T02:27:18;19.30;67.50
81266;DHT22;70748;52.510;13.410;2023-06-19T02:29:44;19.30;67.00
81266;DHT22;70748;52.510;13.410;2023-06-19T02:32:10;19.30;67.10
81266;DHT22;70748;52.510;13.410;2023-06-19T02:34:36;19.30;65.80
81266;DHT22;70748;52.510;13.410;2023-06-19T02:37:01;19.30;66.20
81266;DHT22;70748;52.510;13.410;2023-06-19T02:39:27;19.40;66.70
81266;DHT22;70748;52.510;13.410;2023-06-19T02:41:53;19.30;66.80
81266;DHT22;70748;52.510;13.410;2023-06-19T02:44:18;19.30;67.10
81266;DHT22;70748;52.510;13.410;2023-06-19T02:46:44;19.30;67.00
81266;DHT22;70748;52.510;13.410;2023-06-19T02:49:10;19.40;67.30
81266;DHT22;70748;52.510;13.410;2023-06-19T02:51:35;19.40;67.50
81266;DHT22;70748;52.510;13.410;2023-06-19T02:54:01;19.40;66.60
81266;DHT22;70748;52.510;13.410;2023-06-19T02:56:27;19.40;65.90
81266;DHT22;70748;52.510;13.410;2023-06-19T02:58:54;19.50;65.90
81266;DHT22;70748;52.510;13.410;2023-06-19T03:01:19;19.50;65.00
81266;DHT22;70748;52.510;13.410;2023-06-19T03:03:45;19.60;64.50
81266;DHT22;70748;52.510;13.410;2023-06-19T03:06:12;19.50;64.90
81266;DHT22;70748;52.510;13.410;2023-06-19T03:08:39;19.40;64.80
81266;DHT22;70748;52.510;13.410;2023-06-19T03:11:05;19.40;65.60
81266;DHT22;70748;52.510;13.410;2023-06-19T03:13:46;19.30;65.70
81266;DHT22;70748;52.510;13.410;2023-06-19T03:16:12;19.30;65.60
81266;DHT22;70748;52.510;13.410;2023-06-19T03:18:38;19.30;65.90
81266;DHT22;70748;52.510;13.410;2023-06-19T03:21:03;19.30;66.30
81266;DHT22;70748;52.510;13.410;2023-06-19T03:23:29;19.20;66.60
81266;DHT22;70748;52.510;13.410;2023-06-19T03:25:55;19.20;66.40
81266;DHT22;70748;52.510;13.410;2023-06-19T03:28:22;19.30;66.60
81266;DHT22;70748;52.510;13.410;2023-06-19T03:30:50;19.30;66.60
81266;DHT22;70748;52.510;13.410;2023-06-19T03:33:15;19.40;65.70
81266;DHT22;70748;52.510;13.410;2023-06-19T03:35:41;19.60;64.40
81266;DHT22;70748;52.510;13.410;2023-06-19T03:38:07;19.70;64.10
81266;DHT22;70748;52.510;13.410;2023-06-19T03:40:33;19.70;63.90
81266;DHT22;70748;52.510;13.410;2023-06-19T03:43:00;19.80;63.90
81266;DHT22;70748;52.510;13.410;2023-06-19T03:45:26;19.90;63.80
81266;DHT22;70748;52.510;13.410;2023-06-19T03:47:51;20.00;63.20
81266;DHT22;70748;52.510;13.410;2023-06-19T03:50:18;20.00;62.90
81266;DHT22;70748;52.510;13.410;2023-06-19T03:52:44;20.10;62.60
81266;DHT22;70748;52.510;13.410;2023-06-19T03:55:09;20.20;62.20
81266;DHT22;70748;52.510;13.410;2023-06-19T03:57:35;20.20;62.20
81266;DHT22;70748;52.510;13.410;2023-06-19T04:00:01;20.30;61.70
81266;DHT22;70748;52.510;13.410;2023-06-19T04:02:27;20.40;62.90
81266;DHT22;70748;52.510;13.410;2023-06-19T04:04:53;20.40;61.70
81266;DHT22;70748;52.510;13.410;2023-06-19T04:07:19;20.40;62.20
81266;DHT22;70748;52.510;13.410;2023-06-19T04:09:44;20.50;62.00
81266;DHT22;70748;52.510;13.410;2023-06-19T04:12:10;20.60;60.90
81266;DHT22;70748;52.510;13.410;2023-06-19T04:14:36;20.60;61.00
81266;DHT22;70748;52.510;13.410;2023-06-19T04:17:02;20.60;60.20
81266;DHT22;70748;52.510;13.410;2023-06-19T04:19:28;20.60;60.30
81266;DHT22;70748;52.510;13.410;2023-06-19T04:21:53;20.70;59.70
81266;DHT22;70748;52.510;13.410;2023-06-19T04:24:20;20.70;60.00
81266;DHT22;70748;52.510;13.410;2023-06-19T04:26:47;20.70;60.20
81266;DHT22;70748;52.510;13.410;2023-06-19T04:29:12;20.80;59.40
81266;DHT22;70748;52.510;13.410;2023-06-19T04:31:44;20.90;59.10
81266;DHT22;70748;52.510;13.410;2023-06-19T04:34:13;20.90;59.30
81266;DHT22;70748;52.510;13.410;2023-06-19T04:36:40;20.80;59.70
81266;DHT22;70748;52.510;13.410;2023-06-19T04:39:06;20.90;59.20
81266;DHT22;70748;52.510;13.410;2023-06-19T04:41:32;20.80;59.30
81266;DHT22;70748;52.510;13.410;2023-06-19T04:43:58;20.90;59.40
81266;DHT22;70748;52.510;13.410;2023-06-19T04:46:23;20.90;59.40
81266;DHT22;70748;52.510;13.410;2023-06-19T04:48:49;21.00;59.20
81266;DHT22;70748;52.510;13.410;2023-06-19T04:51:18;20.90;59.30
81266;DHT22;70748;52.510;13.410;2023-06-19T04:53:49;21.10;58.30
81266;DHT22;70748;52.510;13.410;2023-06-19T04:56:15;21.00;58.80
81266;DHT22;70748;52.510;13.410;2023-06-19T04:58:44;21.00;60.00
81266;DHT22;70748;52.510;13.410;2023-06-19T05:01:15;21.00;58.90
81266;DHT22;70748;52.510;13.410;2023-06-19T05:03:43;21.00;58.90
81266;DHT22;70748;52.510;13.410;2023-06-19T05:06:11;21.00;59.10
81266;DHT22;70748;52.510;13.410;2023-06-19T05:08:37;21.00;58.60
81266;DHT22;70748;52.510;13.410;2023-06-19T05:11:03;20.90;58.90
81266;DHT22;70748;52.510;13.410;2023-06-19T05:13:29;21.00;58.50
81266;DHT22;70748;52.510;13.410;2023-06-19T05:15:54;21.00;58.90
81266;DHT22;70748;52.510;13.410;2023-06-19T05:18:22;20.90;58.80
81266;DHT22;70748;52.510;13.410;2023-06-19T05:20:48;20.80;59.30
81266;DHT22;70748;52.510;13.410;2023-06-19T05:23:13;20.90;59.20
81266;DHT22;70748;52.510;13.410;2023-06-19T05:25:39;21.00;59.30
81266;DHT22;70748;52.510;13.410;2023-06-19T05:28:05;21.10;58.80
81266;DHT22;70748;52.510;13.410;2023-06-19T05:30:30;21.10;58.80
81266;DHT22;70748;52.510;13.410;2023-06-19T05:32:56;21.20;59.10
81266;DHT22;70748;52.510;13.410;2023-06-19T05:35:22;21.20;59.30
81266;DHT22;70748;52.510;13.410;2023-06-19T05:37:48;21.30;58.80
81266;DHT22;70748;52.510;13.410;2023-06-19T05:40:14;21.30;58.70
81266;DHT22;70748;52.510;13.410;2023-06-19T05:42:41;21.40;58.30
81266;DHT22;70748;52.510;13.410;2023-06-19T05:45:07;21.50;57.70
81266;DHT22;70748;52.510;13.410;2023-06-19T05:47:33;21.50;58.00
81266;DHT22;70748;52.510;13.410;2023-06-19T05:49:59;21.50;58.40
81266;DHT22;70748;52.510;13.410;2023-06-19T05:52:25;21.70;57.70
81266;DHT22;70748;52.510;13.410;2023-06-19T05:54:51;21.70;58.00
81266;DHT22;70748;52.510;13.410;2023-06-19T05:57:19;21.70;57.30
81266;DHT22;70748;52.510;13.410;2023-06-19T05:59:48;21.70;57.70
81266;DHT22;70748;52.510;13.410;2023-06-19T06:02:14;21.80;58.00
81266;DHT22;70748;52.510;13.410;2023-06-19T06:04:41;21.80;58.00
81266;DHT22;70748;52.510;13.410;2023-06-19T06:07:08;22.00;57.20
81266;DHT22;70748;52.510;13.410;2023-06-19T06:09:35;22.10;58.30
81266;DHT22;70748;52.510;13.410;2023-06-19T06:12:01;22.20;57.00
81266;DHT22;70748;52.510;13.410;2023-06-19T06:14:27;22.20;56.90
81266;DHT22;70748;52.510;13.410;2023-06-19T06:17:20;22.10;56.90
81266;DHT22;70748;52.510;13.410;2023-06-19T06:19:51;22.20;56.70
81266;DHT22;70748;52.510;13.410;2023-06-19T06:22:17;22.40;56.30
81266;DHT22;70748;52.510;13.410;2023-06-19T06:24:44;22.50;56.00
81266;DHT22;70748;52.510;13.410;2023-06-19T06:27:12;22.50;56.10
81266;DHT22;70748;52.510;13.410;2023-06-19T06:30:12;22.60;56.70
81266;DHT22;70748;52.510;13.410;2023-06-19T06:32:38;22.70;56.70
81266;DHT22;70748;52.510;13.410;2023-06-19T06:35:23;22.80;56.30
81266;DHT22;70748;52.510;13.410;2023-06-19T06:41:53;22.90;54.70
81266;DHT22;70748;52.510;13.410;2023-06-19T06:51:14;23.00;54.20
81266;DHT22;70748;52.510;13.410;2023-06-19T06:53:44;23.20;53.90
81266;DHT22;70748;52.510;13.410;2023-06-19T06:56:10;23.20;53.50
81266;DHT22;70748;52.510;13.410;2023-06-19T06:58:36;23.20;53.60
81266;DHT22;70748;52.510;13.410;2023-06-19T07:01:02;23.30;53.80
81266;DHT22;70748;52.510;13.410;2023-06-19T07:03:27;23.40;53.40
81266;DHT22;70748;52.510;13.410;2023-06-19T07:05:55;23.50;53.20
81266;DHT22;70748;52.510;13.410;2023-06-19T07:08:21;23.50;53.20
81266;DHT22;70748;52.510;13.410;2023-06-19T07:10:46;23.50;53.50
81266;DHT22;70748;52.510;13.410;2023-06-19T07:13:12;23.60;53.50
81266;DHT22;70748;52.510;13.410;2023-06-19T07:15:38;23.80;53.00
81266;DHT22;70748;52.510;13.410;2023-06-19T07:18:03;24.00;52.20
81266;DHT22;70748;52.510;13.410;2023-06-19T07:20:29;24.10;51.60
81266;DHT22;70748;52.510;13.410;2023-06-19T07:22:55;24.00;51.80
81266;DHT22;70748;52.510;13.410;2023-06-19T07:25:20;24.10;51.50
81266;DHT22;70748;52.510;13.410;2023-06-19T07:27:49;24.20;51.30
81266;DHT22;70748;52.510;13.410;2023-06-19T07:30:15;24.30;51.40
81266;DHT22;70748;52.510;13.410;2023-06-19T07:32:43;24.40;50.30
81266;DHT22;70748;52.510;13.410;2023-06-19T07:35:08;24.60;50.00
81266;DHT22;70748;52.510;13.410;2023-06-19T07:37:34;24.70;50.20
81266;DHT22;70748;52.510;13.410;2023-06-19T07:40:00;25.00;50.90
81266;DHT22;70748;52.510;13.410;2023-06-19T07:42:26;25.30;48.00
81266;DHT22;70748;52.510;13.410;2023-06-19T07:44:52;25.50;47.30
81266;DHT22;70748;52.510;13.410;2023-06-19T07:47:18;25.50;47.50
81266;DHT22;70748;52.510;13.410;2023-06-19T07:49:44;25.50;48.20
81266;DHT22;70748;52.510;13.410;2023-06-19T07:52:11;25.50;48.50
81266;DHT22;70748;52.510;13.410;2023-06-19T07:54:52;25.70;45.90
81266;DHT22;70748;52.510;13.410;2023-06-19T07:57:23;25.80;45.90
81266;DHT22;70748;52.510;13.410;2023-06-19T07:59:50;26.00;46.30
81266;DHT22;70748;52.510;13.410;2023-06-19T08:02:16;26.10;46.30
81266;DHT22;70748;52.510;13.410;2023-06-19T08:04:43;26.30;46.80
81266;DHT22;70748;52.510;13.410;2023-06-19T08:07:08;26.50;45.30
81266;DHT22;70748;52.510;13.410;2023-06-19T08:09:34;26.60;45.20
81266;DHT22;70748;52.510;13.410;2023-06-19T08:12:01;26.80;43.60
81266;DHT22;70748;52.510;13.410;2023-06-19T08:14:27;26.80;43.60
81266;DHT22;70748;52.510;13.410;2023-06-19T08:16:52;26.80;44.10
81266;DHT22;70748;52.510;13.410;2023-06-19T08:19:18;26.60;44.90
81266;DHT22;70748;52.510;13.410;2023-06-19T08:21:43;26.70;44.40
81266;DHT22;70748;52.510;13.410;2023-06-19T08:24:09;26.80;45.10
81266;DHT22;70748;52.510;13.410;2023-06-19T08:26:35;27.20;44.90
81266;DHT22;70748;52.510;13.410;2023-06-19T08:29:01;27.40;43.70
81266;DHT22;70748;52.510;13.410;2023-06-19T08:31:26;27.40;43.20
81266;DHT22;70748;52.510;13.410;2023-06-19T08:33:54;27.20;42.70
81266;DHT22;70748;52.510;13.410;2023-06-19T08:36:20;27.10;43.50
81266;DHT22;70748;52.510;13.410;2023-06-19T08:38:46;27.00;43.90
81266;DHT22;70748;52.510;13.410;2023-06-19T08:41:17;27.00;44.50
81266;DHT22;70748;52.510;13.410;2023-06-19T08:43:44;26.90;43.20
81266;DHT22;70748;52.510;13.410;2023-06-19T08:46:13;26.80;44.90
81266;DHT22;70748;52.510;13.410;2023-06-19T08:48:39;26.80;44.50
81266;DHT22;70748;52.510;13.410;2023-06-19T08:51:05;26.80;45.40
81266;DHT22;70748;52.510;13.410;2023-06-19T08:54:01;26.70;44.90
81266;DHT22;70748;52.510;13.410;2023-06-19T08:56:27;26.80;45.00
81266;DHT22;70748;52.510;13.410;2023-06-19T08:58:53;26.80;45.30
81266;DHT22;70748;52.510;13.410;2023-06-19T09:01:19;26.60;45.10
81266;DHT22;70748;52.510;13.410;2023-06-19T09:03:46;26.70;44.30
81266;DHT22;70748;52.510;13.410;2023-06-19T09:06:15;26.80;45.40
81266;DHT22;70748;52.510;13.410;2023-06-19T09:08:44;27.00;44.40
81266;DHT22;70748;52.510;13.410;2023-06-19T09:11:11;27.40;44.10
81266;DHT22;70748;52.510;13.410;2023-06-19T09:13:37;27.20;43.50
81266;DHT22;70748;52.510;13.410;2023-06-19T09:16:03;27.50;42.90
81266;DHT22;70748;52.510;13.410;2023-06-19T09:18:45;27.30;42.60
81266;DHT22;70748;52.510;13.410;2023-06-19T09:21:19;27.20;43.60
81266;DHT22;70748;52.510;13.410;2023-06-19T09:23:46;27.30;43.10
81266;DHT22;70748;52.510;13.410;2023-06-19T09:26:14;27.40;43.10
81266;DHT22;70748;52.510;13.410;2023-06-19T09:28:41;27.50;42.50
81266;DHT22;70748;52.510;13.410;2023-06-19T09:31:10;27.40;43.40
81266;DHT22;70748;52.510;13.410;2023-06-19T09:33:37;27.40;43.60
81266;DHT22;70748;52.510;13.410;2023-06-19T09:36:04;27.30;43.40
81266;DHT22;70748;52.510;13.410;2023-06-19T09:38:32;27.40;43.40
81266;DHT22;70748;52.510;13.410;2023-06-19T09:41:02;27.50;44.10
81266;DHT22;70748;52.510;13.410;2023-06-19T09:43:40;27.50;43.10
81266;DHT22;70748;52.510;13.410;2023-06-19T09:46:07;27.50;43.20
81266;DHT22;70748;52.510;13.410;2023-06-19T09:48:35;27.30;44.10
81266;DHT22;70748;52.510;13.410;2023-06-19T09:53:48;27.30;44.30
81266;DHT22;70748;52.510;13.410;2023-06-19T09:56:15;27.60;43.50
81266;DHT22;70748;52.510;13.410;2023-06-19T09:58:42;27.70;43.40
81266;DHT22;70748;52.510;13.410;2023-06-19T10:01:09;27.70;43.20
81266;DHT22;70748;52.510;13.410;2023-06-19T10:03:36;27.70;43.20
81266;DHT22;70748;52.510;13.410;2023-06-19T10:06:03;27.80;43.10
81266;DHT22;70748;52.510;13.410;2023-06-19T10:08:40;27.60;43.60
81266;DHT22;70748;52.510;13.410;2023-06-19T10:11:06;27.70;43.90
81266;DHT22;70748;52.510;13.410;2023-06-19T10:13:36;27.60;44.60
81266;DHT22;70748;52.510;13.410;2023-06-19T10:16:04;27.60;43.90
81266;DHT22;70748;52.510;13.410;2023-06-19T10:18:32;27.80;43.70
81266;DHT22;70748;52.510;13.410;2023-06-19T10:20:58;28.00;44.20
81266;DHT22;70748;52.510;13.410;2023-06-19T10:23:27;28.20;43.00
81266;DHT22;70748;52.510;13.410;2023-06-19T10:25:58;28.30;42.10
81266;DHT22;70748;52.510;13.410;2023-06-19T10:28:25;28.30;42.20
81266;DHT22;70748;52.510;13.410;2023-06-19T10:33:28;28.30;41.50
81266;DHT22;70748;52.510;13.410;2023-06-19T10:35:54;28.10;42.30
81266;DHT22;70748;52.510;13.410;2023-06-19T10:38:21;27.80;43.00
81266;DHT22;70748;52.510;13.410;2023-06-19T10:40:47;27.70;44.40
81266;DHT22;70748;52.510;13.410;2023-06-19T10:43:19;27.00;45.60
81266;DHT22;70748;52.510;13.410;2023-06-19T10:45:47;26.50;48.10
81266;DHT22;70748;52.510;13.410;2023-06-19T10:48:23;26.10;49.10
81266;DHT22;70748;52.510;13.410;2023-06-19T10:50:49;26.00;49.30
81266;DHT22;70748;52.510;13.410;2023-06-19T10:53:30;26.20;49.40
81266;DHT22;70748;52.510;13.410;2023-06-19T10:56:01;26.30;48.70
81266;DHT22;70748;52.510;13.410;2023-06-19T10:58:28;26.80;48.30
81266;DHT22;70748;52.510;13.410;2023-06-19T11:00:54;27.60;47.20
81266;DHT22;70748;52.510;13.410;2023-06-19T11:03:20;28.90;42.50
81266;DHT22;70748;52.510;13.410;2023-06-19T11:05:47;30.10;40.40
81266;DHT22;70748;52.510;13.410;2023-06-19T11:08:18;30.50;37.80
81266;DHT22;70748;52.510;13.410;2023-06-19T11:10:44;31.00;36.40
81266;DHT22;70748;52.510;13.410;2023-06-19T11:13:17;31.00;36.50
81266;DHT22;70748;52.510;13.410;2023-06-19T11:15:44;30.80;35.80
81266;DHT22;70748;52.510;13.410;2023-06-19T11:18:10;30.40;36.70
81266;DHT22;70748;52.510;13.410;2023-06-19T11:20:47;30.20;37.50
81266;DHT22;70748;52.510;13.410;2023-06-19T11:23:15;30.10;37.00
81266;DHT22;70748;52.510;13.410;2023-06-19T11:25:42;30.20;36.60
81266;DHT22;70748;52.510;13.410;2023-06-19T11:28:12;30.10;37.60
81266;DHT22;70748;52.510;13.410;2023-06-19T11:30:43;30.00;37.50
81266;DHT22;70748;52.510;13.410;2023-06-19T11:33:21;29.90;37.50
81266;DHT22;70748;52.510;13.410;2023-06-19T11:35:49;29.90;38.20
81266;DHT22;70748;52.510;13.410;2023-06-19T11:38:23;29.70;38.90
81266;DHT22;70748;52.510;13.410;2023-06-19T11:40:49;29.80;37.80
81266;DHT22;70748;52.510;13.410;2023-06-19T11:43:28;30.10;37.10
81266;DHT22;70748;52.510;13.410;2023-06-19T11:46:07;30.30;37.90
81266;DHT22;70748;52.510;13.410;2023-06-19T11:48:38;30.60;36.40
81266;DHT22;70748;52.510;13.410;2023-06-19T11:51:04;31.10;35.70
81266;DHT22;70748;52.510;13.410;2023-06-19T11:53:30;31.30;34.20
81266;DHT22;70748;52.510;13.410;2023-06-19T11:55:56;31.90;33.00
81266;DHT22;70748;52.510;13.410;2023-06-19T11:58:22;32.50;32.00
81266;DHT22;70748;52.510;13.410;2023-06-19T12:00:48;33.90;29.30
81266;DHT22;70748;52.510;13.410;2023-06-19T12:03:14;34.80;28.20
81266;DHT22;70748;52.510;13.410;2023-06-19T12:05:40;35.60;28.20
81266;DHT22;70748;52.510;13.410;2023-06-19T12:08:06;36.20;26.10
81266;DHT22;70748;52.510;13.410;2023-06-19T12:10:33;36.50;26.20
81266;DHT22;70748;52.510;13.410;2023-06-19T12:12:59;36.90;25.40
81266;DHT22;70748;52.510;13.410;2023-06-19T12:15:25;36.30;26.00
81266;DHT22;70748;52.510;13.410;2023-06-19T12:17:51;36.20;26.20
81266;DHT22;70748;52.510;13.410;2023-06-19T12:20:17;35.40;26.10
81266;DHT22;70748;52.510;13.410;2023-06-19T12:22:44;35.00;27.30
81266;DHT22;70748;52.510;13.410;2023-06-19T12:25:09;35.00;27.30
81266;DHT22;70748;52.510;13.410;2023-06-19T12:27:37;34.80;27.20
81266;DHT22;70748;52.510;13.410;2023-06-19T12:30:03;35.30;27.10
81266;DHT22;70748;52.510;13.410;2023-06-19T12:32:29;36.00;25.90
81266;DHT22;70748;52.510;13.410;2023-06-19T12:34:54;37.10;24.60
81266;DHT22;70748;52.510;13.410;2023-06-19T12:37:21;38.10;23.90
81266;DHT22;70748;52.510;13.410;2023-06-19T12:39:47;39.00;22.40
81266;DHT22;70748;52.510;13.410;2023-06-19T12:42:13;40.00;21.50
81266;DHT22;70748;52.510;13.410;2023-06-19T12:44:40;40.60;21.40
81266;DHT22;70748;52.510;13.410;2023-06-19T12:47:06;40.80;21.00
81266;DHT22;70748;52.510;13.410;2023-06-19T12:49:32;41.60;20.40
81266;DHT22;70748;52.510;13.410;2023-06-19T12:51:58;42.30;19.40
81266;DHT22;70748;52.510;13.410;2023-06-19T12:54:23;42.70;19.60
81266;DHT22;70748;52.510;13.410;2023-06-19T12:56:49;42.30;19.40
81266;DHT22;70748;52.510;13.410;2023-06-19T12:59:16;41.80;19.30
81266;DHT22;70748;52.510;13.410;2023-06-19T13:01:42;42.50;19.10
81266;DHT22;70748;52.510;13.410;2023-06-19T13:04:08;42.00;19.40
81266;DHT22;70748;52.510;13.410;2023-06-19T13:06:35;40.60;20.70
81266;DHT22;70748;52.510;13.410;2023-06-19T13:09:01;39.50;21.70
81266;DHT22;70748;52.510;13.410;2023-06-19T13:11:27;38.60;23.10
81266;DHT22;70748;52.510;13.410;2023-06-19T13:13:53;37.60;23.50
81266;DHT22;70748;52.510;13.410;2023-06-19T13:16:19;36.60;24.20
81266;DHT22;70748;52.510;13.410;2023-06-19T13:18:45;36.20;24.60
81266;DHT22;70748;52.510;13.410;2023-06-19T13:21:13;35.90;24.70
81266;DHT22;70748;52.510;13.410;2023-06-19T13:23:41;35.80;24.30
81266;DHT22;70748;52.510;13.410;2023-06-19T13:26:07;35.50;25.20
81266;DHT22;70748;52.510;13.410;2023-06-19T13:28:33;35.40;25.40
81266;DHT22;70748;52.510;13.410;2023-06-19T13:30:59;35.30;25.40
81266;DHT22;70748;52.510;13.410;2023-06-19T13:33:25;35.00;26.60
81266;DHT22;70748;52.510;13.410;2023-06-19T13:35:51;35.00;27.30
81266;DHT22;70748;52.510;13.410;2023-06-19T13:38:18;34.90;26.60
81266;DHT22;70748;52.510;13.410;2023-06-19T13:40:44;34.70;26.70
81266;DHT22;70748;52.510;13.410;2023-06-19T13:43:10;34.40;27.20
81266;DHT22;70748;52.510;13.410;2023-06-19T13:45:36;34.20;27.60
81266;DHT22;70748;52.510;13.410;2023-06-19T13:48:04;33.90;27.70
81266;DHT22;70748;52.510;13.410;2023-06-19T13:50:30;33.50;27.90
81266;DHT22;70748;52.510;13.410;2023-06-19T13:52:56;33.20;29.00
81266;DHT22;70748;52.510;13.410;2023-06-19T13:55:21;33.10;28.70
81266;DHT22;70748;52.510;13.410;2023-06-19T13:57:48;32.90;28.40
81266;DHT22;70748;52.510;13.410;2023-06-19T14:00:14;32.90;29.10
81266;DHT22;70748;52.510;13.410;2023-06-19T14:02:41;32.60;29.30
81266;DHT22;70748;52.510;13.410;2023-06-19T14:05:08;32.60;30.00
81266;DHT22;70748;52.510;13.410;2023-06-19T14:07:34;32.50;29.20
81266;DHT22;70748;52.510;13.410;2023-06-19T14:10:02;32.30;29.70
81266;DHT22;70748;52.510;13.410;2023-06-19T14:12:28;32.10;30.30
81266;DHT22;70748;52.510;13.410;2023-06-19T14:14:54;32.30;30.40
81266;DHT22;70748;52.510;13.410;2023-06-19T14:17:21;32.20;30.30
81266;DHT22;70748;52.510;13.410;2023-06-19T14:19:47;32.30;31.10
81266;DHT22;70748;52.510;13.410;2023-06-19T14:22:13;32.20;30.00
81266;DHT22;70748;52.510;13.410;2023-06-19T14:24:38;32.10;30.40
81266;DHT22;70748;52.510;13.410;2023-06-19T14:27:04;32.10;30.70
81266;DHT22;70748;52.510;13.410;2023-06-19T14:29:30;32.00;32.60
81266;DHT22;70748;52.510;13.410;2023-06-19T14:31:56;32.10;31.50
81266;DHT22;70748;52.510;13.410;2023-06-19T14:34:21;32.10;30.80
81266;DHT22;70748;52.510;13.410;2023-06-19T14:36:47;32.10;30.80
81266;DHT22;70748;52.510;13.410;2023-06-19T14:39:13;32.20;30.60
81266;DHT22;70748;52.510;13.410;2023-06-19T14:41:39;31.90;33.10
81266;DHT22;70748;52.510;13.410;2023-06-19T14:44:05;32.10;31.40
81266;DHT22;70748;52.510;13.410;2023-06-19T14:46:31;32.30;32.00
81266;DHT22;70748;52.510;13.410;2023-06-19T14:48:58;32.10;30.70
81266;DHT22;70748;52.510;13.410;2023-06-19T14:51:25;32.10;30.70
81266;DHT22;70748;52.510;13.410;2023-06-19T14:53:51;32.00;31.90
81266;DHT22;70748;52.510;13.410;2023-06-19T14:56:16;32.20;31.60
81266;DHT22;70748;52.510;13.410;2023-06-19T14:58:42;32.40;31.20
81266;DHT22;70748;52.510;13.410;2023-06-19T15:01:08;32.60;30.10
81266;DHT22;70748;52.510;13.410;2023-06-19T15:03:34;32.60;29.80
81266;DHT22;70748;52.510;13.410;2023-06-19T15:06:00;32.60;29.90
81266;DHT22;70748;52.510;13.410;2023-06-19T15:08:26;32.50;30.00
81266;DHT22;70748;52.510;13.410;2023-06-19T15:10:52;32.40;30.60
81266;DHT22;70748;52.510;13.410;2023-06-19T15:13:18;31.90;30.70
81266;DHT22;70748;52.510;13.410;2023-06-19T15:15:44;31.70;31.40
81266;DHT22;70748;52.510;13.410;2023-06-19T15:18:11;31.60;31.10
81266;DHT22;70748;52.510;13.410;2023-06-19T15:20:36;31.60;31.00
81266;DHT22;70748;52.510;13.410;2023-06-19T15:23:07;31.60;31.20
81266;DHT22;70748;52.510;13.410;2023-06-19T15:25:33;31.60;31.60
81266;DHT22;70748;52.510;13.410;2023-06-19T15:27:58;31.40;32.50
81266;DHT22;70748;52.510;13.410;2023-06-19T15:30:24;31.40;32.10
81266;DHT22;70748;52.510;13.410;2023-06-19T15:32:50;31.20;31.60
81266;DHT22;70748;52.510;13.410;2023-06-19T15:35:15;31.10;33.10